sensor_id;sensor_type;location;lat;lon;timestamp;pressure;altitude;pressure_sealevel;temperature;humidity
62011;BME280;47967;51.756;10.174;2023-02-26T05:02:47;99872.38;;;-0.57;76.64
62011;BME280;47967;51.756;10.174;2023-02-26T05:06:50;99875.25;;;-0.60;76.54
62011;BME280;47967;51.756;10.174;2023-02-26T05:10:54;99878.06;;;-0.61;75.89
62011;BME280;47967;51.756;10.174;2023-02-26T05:14:57;99886.81;;;-0.50;75.81
62011;BME280;47967;51.756;10.174;2023-02-26T05:19:01;99893.91;;;-0.50;76.05
62011;BME280;47967;51.756;10.174;2023-02-26T05:23:04;99900.22;;;-0.62;76.89
62011;BME280;47967;51.756;10.174;2023-02-26T05:27:06;99904.78;;;-0.53;76.75
62011;BME280;47967;51.756;10.174;2023-02-26T05:31:13;99901.41;;;-0.55;76.89
62011;BME280;47967;51.756;10.174;2023-02-26T05:35:17;99912.84;;;-0.55;76.77
62011;BME280;47967;51.756;10.174;2023-02-26T05:39:20;99906.97;;;-0.58;76.45
62011;BME280;47967;51.756;10.174;2023-02-26T05:43:23;99915.38;;;-0.53;75.66
62011;BME280;47967;51.756;10.174;2023-02-26T05:47:25;99924.38;;;-0.44;75.61
62011;BME280;47967;51.756;10.174;2023-02-26T05:51:29;99925.94;;;-0.42;76.23
62011;BME280;47967;51.756;10.174;2023-02-26T05:55:32;99930.78;;;-0.47;76.69
62011;BME280;47967;51.756;10.174;2023-02-26T05:59:34;99945.72;;;-0.46;77.58
62011;BME280;47967;51.756;10.174;2023-02-26T06:03:38;99939.00;;;-0.61;77.66
62011;BME280;47967;51.756;10.174;2023-02-26T06:07:45;99948.50;;;-0.47;77.69
62011;BME280;47967;51.756;10.174;2023-02-26T06:11:48;99953.06;;;-0.50;78.03
62011;BME280;47967;51.756;10.174;2023-02-26T06:15:50;99972.34;;;-0.47;77.54
62011;BME280;47967;51.756;10.174;2023-02-26T06:19:54;99987.53;;;-0.50;77.48
62011;BME280;47967;51.756;10.174;2023-02-26T06:23:58;99991.50;;;-0.55;77.74
62011;BME280;47967;51.756;10.174;2023-02-26T06:28:00;100000.03;;;-0.40;77.09
62011;BME280;47967;51.756;10.174;2023-02-26T06:32:03;99998.94;;;-0.49;77.02
62011;BME280;47967;51.756;10.174;2023-02-26T06:36:06;100010.84;;;-0.32;76.16
62011;BME280;47967;51.756;10.174;2023-02-26T06:40:12;100018.34;;;-0.37;75.54
62011;BME280;47967;51.756;10.174;2023-02-26T06:44:15;100039.56;;;-0.49;75.40
62011;BME280;47967;51.756;10.174;2023-02-26T06:48:17;100040.53;;;-0.50;75.97
62011;BME280;47967;51.756;10.174;2023-02-26T06:52:20;100044.84;;;-0.37;75.36
62011;BME280;47967;51.756;10.174;2023-02-26T06:56:24;100050.00;;;-0.36;74.92
62011;BME280;47967;51.756;10.174;2023-02-26T07:00:27;100052.19;;;-0.29;74.81
62011;BME280;47967;51.756;10.174;2023-02-26T07:04:29;100060.25;;;-0.31;73.75
62011;BME280;47967;51.756;10.174;2023-02-26T07:08:32;100078.09;;;-0.22;73.21
62011;BME280;47967;51.756;10.174;2023-02-26T07:12:37;100076.03;;;-0.18;72.43
62011;BME280;47967;51.756;10.174;2023-02-26T07:16:39;100083.13;;;-0.07;72.69
62011;BME280;47967;51.756;10.174;2023-02-26T07:20:42;100083.84;;;0.06;72.75
62011;BME280;47967;51.756;10.174;2023-02-26T07:24:45;100095.81;;;0.22;72.15
62011;BME280;47967;51.756;10.174;2023-02-26T07:28:49;100102.31;;;0.29;70.92
62011;BME280;47967;51.756;10.174;2023-02-26T07:32:51;100099.34;;;0.55;70.56
62011;BME280;47967;51.756;10.174;2023-02-26T07:36:54;100116.88;;;0.46;68.85
62011;BME280;47967;51.756;10.174;2023-02-26T07:40:57;100113.28;;;0.36;68.82
62011;BME280;47967;51.756;10.174;2023-02-26T07:45:01;100118.97;;;0.31;68.03
62011;BME280;47967;51.756;10.174;2023-02-26T07:49:03;100121.25;;;0.36;67.03
62011;BME280;47967;51.756;10.174;2023-02-26T07:53:06;100131.50;;;0.29;66.79
62011;BME280;47967;51.756;10.174;2023-02-26T07:57:08;100145.28;;;0.23;67.14
62011;BME280;47967;51.756;10.174;2023-02-26T08:01:12;100144.75;;;0.40;67.27
62011;BME280;47967;51.756;10.174;2023-02-26T08:05:16;100158.00;;;0.40;66.54
62011;BME280;47967;51.756;10.174;2023-02-26T08:09:19;100149.84;;;0.32;66.68
62011;BME280;47967;51.756;10.174;2023-02-26T08:13:21;100148.94;;;0.54;66.60
62011;BME280;47967;51.756;10.174;2023-02-26T08:17:25;100147.25;;;0.53;65.96
62011;BME280;47967;51.756;10.174;2023-02-26T08:21:27;100164.81;;;0.33;65.81
62011;BME280;47967;51.756;10.174;2023-02-26T08:25:30;100173.03;;;0.19;66.51
62011;BME280;47967;51.756;10.174;2023-02-26T08:29:32;100173.41;;;0.14;66.36
62011;BME280;47967;51.756;10.174;2023-02-26T08:33:36;100166.66;;;0.21;67.00
62011;BME280;47967;51.756;10.174;2023-02-26T08:37:39;100176.75;;;0.27;66.52
62011;BME280;47967;51.756;10.174;2023-02-26T08:41:41;100184.47;;;0.42;65.97
62011;BME280;47967;51.756;10.174;2023-02-26T08:45:44;100210.69;;;0.68;65.54
62011;BME280;47967;51.756;10.174;2023-02-26T08:49:49;100208.81;;;0.91;64.52
62011;BME280;47967;51.756;10.174;2023-02-26T08:53:51;100210.22;;;0.95;64.19
62011;BME280;47967;51.756;10.174;2023-02-26T08:57:54;100210.66;;;1.11;63.76
62011;BME280;47967;51.756;10.174;2023-02-26T09:01:56;100215.91;;;1.02;63.42
62011;BME280;47967;51.756;10.174;2023-02-26T09:06:00;100222.25;;;1.32;62.70
62011;BME280;47967;51.756;10.174;2023-02-26T09:10:06;100217.84;;;1.21;62.60
62011;BME280;47967;51.756;10.174;2023-02-26T09:14:09;100234.00;;;1.08;62.69
62011;BME280;47967;51.756;10.174;2023-02-26T09:18:11;100233.69;;;1.22;62.92
62011;BME280;47967;51.756;10.174;2023-02-26T09:22:17;100230.22;;;1.10;61.24
62011;BME280;47967;51.756;10.174;2023-02-26T09:26:20;100245.16;;;1.23;62.23
62011;BME280;47967;51.756;10.174;2023-02-26T09:30:22;100249.31;;;1.58;62.43
62011;BME280;47967;51.756;10.174;2023-02-26T09:34:25;100259.66;;;1.72;61.79
62011;BME280;47967;51.756;10.174;2023-02-26T09:38:29;100252.56;;;1.62;60.96
62011;BME280;47967;51.756;10.174;2023-02-26T09:42:42;100270.78;;;1.45;59.24
62011;BME280;47967;51.756;10.174;2023-02-26T09:46:58;100268.78;;;1.58;59.53
62011;BME280;47967;51.756;10.174;2023-02-26T09:51:02;100286.22;;;1.51;58.33
62011;BME280;47967;51.756;10.174;2023-02-26T09:55:09;100284.09;;;1.87;58.99
62011;BME280;47967;51.756;10.174;2023-02-26T09:59:13;100283.59;;;1.72;57.96
62011;BME280;47967;51.756;10.174;2023-02-26T10:03:21;100285.59;;;1.80;57.16
62011;BME280;47967;51.756;10.174;2023-02-26T10:07:32;100291.88;;;2.00;56.80
62011;BME280;47967;51.756;10.174;2023-02-26T10:11:46;100301.94;;;1.75;55.51
62011;BME280;47967;51.756;10.174;2023-02-26T10:15:51;100306.41;;;1.96;56.10
62011;BME280;47967;51.756;10.174;2023-02-26T10:19:57;100312.03;;;2.24;57.56
62011;BME280;47967;51.756;10.174;2023-02-26T10:24:05;100315.97;;;2.61;58.07
62011;BME280;47967;51.756;10.174;2023-02-26T10:28:33;100323.63;;;2.85;56.45
62011;BME280;47967;51.756;10.174;2023-02-26T10:32:40;100331.41;;;2.67;52.71
62011;BME280;47967;51.756;10.174;2023-02-26T10:36:47;100328.59;;;2.68;54.38
62011;BME280;47967;51.756;10.174;2023-02-26T10:40:56;100335.72;;;3.18;55.59
62011;BME280;47967;51.756;10.174;2023-02-26T10:45:14;100339.78;;;2.62;56.34
62011;BME280;47967;51.756;10.174;2023-02-26T10:49:41;100344.56;;;2.06;56.71
62011;BME280;47967;51.756;10.174;2023-02-26T10:53:51;100342.56;;;1.78;56.46
62011;BME280;47967;51.756;10.174;2023-02-26T10:58:01;100338.66;;;2.03;55.20
62011;BME280;47967;51.756;10.174;2023-02-26T11:02:17;100338.69;;;2.34;55.26
62011;BME280;47967;51.756;10.174;2023-02-26T11:06:29;100350.50;;;2.41;56.50
62011;BME280;47967;51.756;10.174;2023-02-26T11:10:39;100351.66;;;2.48;54.08
62011;BME280;47967;51.756;10.174;2023-02-26T11:14:44;100340.91;;;2.60;54.44
62011;BME280;47967;51.756;10.174;2023-02-26T11:18:52;100339.13;;;2.70;55.24
62011;BME280;47967;51.756;10.174;2023-02-26T11:22:57;100369.06;;;2.52;55.07
62011;BME280;47967;51.756;10.174;2023-02-26T11:27:02;100370.78;;;2.63;54.71
62011;BME280;47967;51.756;10.174;2023-02-26T11:31:09;100366.03;;;2.67;53.57
62011;BME280;47967;51.756;10.174;2023-02-26T11:35:16;100371.63;;;2.95;52.85
62011;BME280;47967;51.756;10.174;2023-02-26T11:39:21;100369.97;;;3.13;51.56
62011;BME280;47967;51.756;10.174;2023-02-26T11:43:26;100376.03;;;3.25;49.58
62011;BME280;47967;51.756;10.174;2023-02-26T11:47:35;100371.72;;;3.83;49.67
62011;BME280;47967;51.756;10.174;2023-02-26T11:51:41;100378.25;;;3.10;50.72
62011;BME280;47967;51.756;10.174;2023-02-26T11:55:51;100373.56;;;2.93;51.83
62011;BME280;47967;51.756;10.174;2023-02-26T11:59:55;100372.53;;;2.74;53.28
62011;BME280;47967;51.756;10.174;2023-02-26T12:04:00;100390.88;;;3.08;50.97
62011;BME280;47967;51.756;10.174;2023-02-26T12:08:16;100376.66;;;2.98;50.60
62011;BME280;47967;51.756;10.174;2023-02-26T12:12:34;100372.72;;;2.92;50.71
62011;BME280;47967;51.756;10.174;2023-02-26T12:16:50;100369.03;;;3.44;51.74
62011;BME280;47967;51.756;10.174;2023-02-26T12:21:06;100369.34;;;3.41;50.00
62011;BME280;47967;51.756;10.174;2023-02-26T12:25:21;100364.03;;;3.00;49.80
62011;BME280;47967;51.756;10.174;2023-02-26T12:29:47;100375.94;;;2.86;48.32
62011;BME280;47967;51.756;10.174;2023-02-26T12:34:15;100384.66;;;2.98;49.38
62011;BME280;47967;51.756;10.174;2023-02-26T12:38:28;100383.50;;;3.51;48.82
62011;BME280;47967;51.756;10.174;2023-02-26T12:42:39;100391.50;;;3.31;49.44
62011;BME280;47967;51.756;10.174;2023-02-26T12:46:53;100384.72;;;3.08;50.49
62011;BME280;47967;51.756;10.174;2023-02-26T12:51:06;100400.97;;;3.04;49.50
62011;BME280;47967;51.756;10.174;2023-02-26T12:55:21;100394.69;;;3.15;48.18
62011;BME280;47967;51.756;10.174;2023-02-26T12:59:40;100391.38;;;4.21;46.88
62011;BME280;47967;51.756;10.174;2023-02-26T13:04:00;100398.06;;;4.45;45.36
62011;BME280;47967;51.756;10.174;2023-02-26T13:08:11;100393.78;;;3.75;47.95
62011;BME280;47967;51.756;10.174;2023-02-26T13:12:26;100399.47;;;3.22;48.11
62011;BME280;47967;51.756;10.174;2023-02-26T13:16:40;100405.09;;;3.28;47.58
62011;BME280;47967;51.756;10.174;2023-02-26T13:20:53;100399.94;;;3.76;46.72
62011;BME280;47967;51.756;10.174;2023-02-26T13:25:01;100384.47;;;4.19;46.12
62011;BME280;47967;51.756;10.174;2023-02-26T13:29:09;100389.28;;;3.76;46.54
62011;BME280;47967;51.756;10.174;2023-02-26T13:33:17;100398.69;;;3.60;46.25
62011;BME280;47967;51.756;10.174;2023-02-26T13:37:23;100401.44;;;3.29;47.93
62011;BME280;47967;51.756;10.174;2023-02-26T13:41:34;100396.28;;;3.57;48.72
62011;BME280;47967;51.756;10.174;2023-02-26T13:45:47;100402.75;;;3.55;46.43
62011;BME280;47967;51.756;10.174;2023-02-26T13:50:04;100394.91;;;3.73;46.19
62011;BME280;47967;51.756;10.174;2023-02-26T13:54:32;100384.91;;;3.75;46.35
62011;BME280;47967;51.756;10.174;2023-02-26T13:58:51;100409.78;;;3.75;46.49
62011;BME280;47967;51.756;10.174;2023-02-26T14:02:57;100390.94;;;3.96;46.42
62011;BME280;47967;51.756;10.174;2023-02-26T14:07:09;100403.59;;;4.14;45.77
62011;BME280;47967;51.756;10.174;2023-02-26T14:11:44;100397.66;;;4.40;45.91
62011;BME280;47967;51.756;10.174;2023-02-26T14:15:55;100400.31;;;4.40;45.73
62011;BME280;47967;51.756;10.174;2023-02-26T14:20:23;100401.19;;;4.30;46.76
62011;BME280;47967;51.756;10.174;2023-02-26T14:24:34;100403.75;;;3.73;47.09
62011;BME280;47967;51.756;10.174;2023-02-26T14:28:43;100409.09;;;3.93;45.43
62011;BME280;47967;51.756;10.174;2023-02-26T14:32:48;100412.84;;;4.20;44.66
62011;BME280;47967;51.756;10.174;2023-02-26T14:36:53;100406.88;;;4.55;43.34
62011;BME280;47967;51.756;10.174;2023-02-26T14:41:02;100414.03;;;4.64;42.69
62011;BME280;47967;51.756;10.174;2023-02-26T14:45:17;100412.28;;;4.83;42.51
62011;BME280;47967;51.756;10.174;2023-02-26T14:49:25;100413.88;;;4.66;43.25
62011;BME280;47967;51.756;10.174;2023-02-26T14:53:56;100402.97;;;4.49;43.38
62011;BME280;47967;51.756;10.174;2023-02-26T14:58:14;100424.59;;;4.56;41.97
62011;BME280;47967;51.756;10.174;2023-02-26T15:02:29;100418.47;;;4.36;42.08
62011;BME280;47967;51.756;10.174;2023-02-26T15:06:45;100417.44;;;4.57;43.28
62011;BME280;47967;51.756;10.174;2023-02-26T15:11:04;100415.00;;;4.63;43.61
62011;BME280;47967;51.756;10.174;2023-02-26T15:15:25;100426.72;;;4.43;43.19
62011;BME280;47967;51.756;10.174;2023-02-26T15:19:44;100425.63;;;4.36;43.30
62011;BME280;47967;51.756;10.174;2023-02-26T15:23:53;100424.28;;;4.69;42.79
62011;BME280;47967;51.756;10.174;2023-02-26T15:27:57;100434.41;;;4.75;41.97
62011;BME280;47967;51.756;10.174;2023-02-26T15:32:06;100436.63;;;4.32;42.16
62011;BME280;47967;51.756;10.174;2023-02-26T15:36:17;100444.22;;;4.08;43.02
62011;BME280;47967;51.756;10.174;2023-02-26T15:40:23;100450.25;;;3.80;42.91
62011;BME280;47967;51.756;10.174;2023-02-26T15:44:26;100442.78;;;3.64;43.75
62011;BME280;47967;51.756;10.174;2023-02-26T15:48:31;100455.31;;;3.83;44.32
62011;BME280;47967;51.756;10.174;2023-02-26T15:52:35;100461.19;;;3.67;44.19
62011;BME280;47967;51.756;10.174;2023-02-26T15:56:38;100454.41;;;3.53;43.81
62011;BME280;47967;51.756;10.174;2023-02-26T16:00:41;100452.03;;;3.50;44.70
62011;BME280;47967;51.756;10.174;2023-02-26T16:04:45;100455.72;;;3.59;45.67
62011;BME280;47967;51.756;10.174;2023-02-26T16:08:48;100462.78;;;3.29;46.44
62011;BME280;47967;51.756;10.174;2023-02-26T16:12:51;100465.13;;;3.13;46.18
62011;BME280;47967;51.756;10.174;2023-02-26T16:16:55;100470.75;;;3.19;46.18
62011;BME280;47967;51.756;10.174;2023-02-26T16:21:00;100468.03;;;3.10;46.39
62011;BME280;47967;51.756;10.174;2023-02-26T16:25:11;100465.94;;;3.13;47.73
62011;BME280;47967;51.756;10.174;2023-02-26T16:29:18;100468.13;;;2.98;47.55
62011;BME280;47967;51.756;10.174;2023-02-26T16:33:24;100473.06;;;3.03;48.31
62011;BME280;47967;51.756;10.174;2023-02-26T16:37:33;100473.56;;;2.87;48.62
62011;BME280;47967;51.756;10.174;2023-02-26T16:41:38;100483.44;;;2.75;49.21
62011;BME280;47967;51.756;10.174;2023-02-26T16:45:45;100483.69;;;2.72;49.15
62011;BME280;47967;51.756;10.174;2023-02-26T16:49:51;100488.59;;;2.67;49.66
62011;BME280;47967;51.756;10.174;2023-02-26T16:53:57;100492.16;;;2.77;49.33
62011;BME280;47967;51.756;10.174;2023-02-26T16:58:00;100497.06;;;2.82;49.67
62011;BME280;47967;51.756;10.174;2023-02-26T17:02:12;100505.00;;;2.72;50.01
62011;BME280;47967;51.756;10.174;2023-02-26T17:06:16;100508.09;;;2.67;50.26
62011;BME280;47967;51.756;10.174;2023-02-26T17:10:23;100510.03;;;2.65;50.59
62011;BME280;47967;51.756;10.174;2023-02-26T17:14:31;100515.59;;;2.62;50.74
62011;BME280;47967;51.756;10.174;2023-02-26T17:18:38;100521.06;;;2.61;51.01
62011;BME280;47967;51.756;10.174;2023-02-26T17:22:42;100517.63;;;2.49;51.21
62011;BME280;47967;51.756;10.174;2023-02-26T17:26:47;100519.25;;;2.40;51.73
62011;BME280;47967;51.756;10.174;2023-02-26T17:30:50;100525.91;;;2.34;52.04
62011;BME280;47967;51.756;10.174;2023-02-26T17:34:53;100540.53;;;2.40;51.94
62011;BME280;47967;51.756;10.174;2023-02-26T17:38:55;100532.94;;;2.35;52.65
62011;BME280;47967;51.756;10.174;2023-02-26T17:42:59;100541.19;;;2.32;52.94
62011;BME280;47967;51.756;10.174;2023-02-26T17:47:04;100544.66;;;2.12;53.27
62011;BME280;47967;51.756;10.174;2023-02-26T17:51:08;100546.06;;;1.83;54.95
62011;BME280;47967;51.756;10.174;2023-02-26T17:55:11;100555.03;;;1.59;54.97
62011;BME280;47967;51.756;10.174;2023-02-26T17:59:15;100553.59;;;1.55;55.81
62011;BME280;47967;51.756;10.174;2023-02-26T18:03:18;100553.81;;;1.52;56.35
62011;BME280;47967;51.756;10.174;2023-02-26T18:07:22;100558.41;;;1.39;57.09
62011;BME280;47967;51.756;10.174;2023-02-26T18:11:25;100564.34;;;1.31;57.82
62011;BME280;47967;51.756;10.174;2023-02-26T18:15:29;100563.13;;;1.24;58.61
62011;BME280;47967;51.756;10.174;2023-02-26T18:19:32;100563.13;;;1.13;58.74
62011;BME280;47967;51.756;10.174;2023-02-26T18:23:35;100574.59;;;1.13;58.83
62011;BME280;47967;51.756;10.174;2023-02-26T18:27:37;100573.03;;;0.99;59.01
62011;BME280;47967;51.756;10.174;2023-02-26T18:31:41;100566.69;;;0.89;59.67
62011;BME280;47967;51.756;10.174;2023-02-26T18:35:45;100579.00;;;0.78;60.21
62011;BME280;47967;51.756;10.174;2023-02-26T18:39:49;100578.53;;;0.73;60.30
62011;BME280;47967;51.756;10.174;2023-02-26T18:43:52;100584.88;;;0.71;60.55
62011;BME280;47967;51.756;10.174;2023-02-26T18:47:56;100592.00;;;0.70;60.82
62011;BME280;47967;51.756;10.174;2023-02-26T18:51:59;100586.22;;;0.65;60.96
62011;BME280;47967;51.756;10.174;2023-02-26T18:56:01;100607.06;;;0.58;61.36
62011;BME280;47967;51.756;10.174;2023-02-26T19:00:05;100611.25;;;0.50;61.76
62011;BME280;47967;51.756;10.174;2023-02-26T19:04:11;100623.06;;;0.45;62.03
62011;BME280;47967;51.756;10.174;2023-02-26T19:08:14;100629.91;;;0.37;62.60
62011;BME280;47967;51.756;10.174;2023-02-26T19:12:16;100626.09;;;0.28;63.14
62011;BME280;47967;51.756;10.174;2023-02-26T19:16:20;100621.47;;;0.19;63.62
62011;BME280;47967;51.756;10.174;2023-02-26T19:20:25;100637.09;;;0.10;64.14
62011;BME280;47967;51.756;10.174;2023-02-26T19:24:27;100635.00;;;0.03;64.57
62011;BME280;47967;51.756;10.174;2023-02-26T19:28:30;100641.97;;;0.04;64.37
62011;BME280;47967;51.756;10.174;2023-02-26T19:32:32;100645.50;;;0.04;64.88
62011;BME280;47967;51.756;10.174;2023-02-26T19:36:36;100656.00;;;0.06;64.59
62011;BME280;47967;51.756;10.174;2023-02-26T19:40:43;100654.66;;;-0.13;65.04
62011;BME280;47967;51.756;10.174;2023-02-26T19:44:45;100656.72;;;-0.42;66.03
62011;BME280;47967;51.756;10.174;2023-02-26T19:48:48;100671.13;;;-0.59;66.41
62011;BME280;47967;51.756;10.174;2023-02-26T19:52:52;100671.22;;;-0.74;67.23
62011;BME280;47967;51.756;10.174;2023-02-26T19:56:56;100674.66;;;-0.99;68.39
62011;BME280;47967;51.756;10.174;2023-02-26T20:01:00;100678.34;;;-1.15;69.53
62011;BME280;47967;51.756;10.174;2023-02-26T20:05:04;100685.00;;;-1.22;69.52
62011;BME280;47967;51.756;10.174;2023-02-26T20:09:09;100692.19;;;-1.24;70.23
62011;BME280;47967;51.756;10.174;2023-02-26T20:13:12;100690.25;;;-1.35;70.53
62011;BME280;47967;51.756;10.174;2023-02-26T20:17:15;100698.19;;;-1.35;71.86
62011;BME280;47967;51.756;10.174;2023-02-26T20:21:17;100700.06;;;-1.37;72.81
62011;BME280;47967;51.756;10.174;2023-02-26T20:25:21;100705.97;;;-1.46;73.12
62011;BME280;47967;51.756;10.174;2023-02-26T20:29:24;100718.56;;;-1.50;74.17
62011;BME280;47967;51.756;10.174;2023-02-26T20:33:26;100711.13;;;-1.57;74.78
62011;BME280;47967;51.756;10.174;2023-02-26T20:37:29;100719.25;;;-1.61;75.15
62011;BME280;47967;51.756;10.174;2023-02-26T20:41:33;100721.41;;;-1.67;75.80
62011;BME280;47967;51.756;10.174;2023-02-26T20:45:36;100723.50;;;-1.72;76.29
62011;BME280;47967;51.756;10.174;2023-02-26T20:49:39;100728.63;;;-1.84;76.87
62011;BME280;47967;51.756;10.174;2023-02-26T20:53:41;100729.41;;;-2.11;76.68
62011;BME280;47967;51.756;10.174;2023-02-26T20:57:47;100733.28;;;-2.02;77.15
62011;BME280;47967;51.756;10.174;2023-02-26T21:01:50;100737.63;;;-2.15;76.81
62011;BME280;47967;51.756;10.174;2023-02-26T21:05:54;100738.53;;;-2.31;77.17
62011;BME280;47967;51.756;10.174;2023-02-26T21:09:56;100737.69;;;-2.31;77.64
62011;BME280;47967;51.756;10.174;2023-02-26T21:14:01;100753.19;;;-2.25;77.45
62011;BME280;47967;51.756;10.174;2023-02-26T21:18:04;100753.84;;;-2.21;78.16
62011;BME280;47967;51.756;10.174;2023-02-26T21:22:06;100757.53;;;-2.24;78.62
62011;BME280;47967;51.756;10.174;2023-02-26T21:26:09;100760.25;;;-2.40;78.38
62011;BME280;47967;51.756;10.174;2023-02-26T21:30:14;100763.53;;;-2.51;78.75
62011;BME280;47967;51.756;10.174;2023-02-26T21:34:17;100761.63;;;-2.63;78.87
62011;BME280;47967;51.756;10.174;2023-02-26T21:38:34;100760.28;;;-2.70;79.71
62011;BME280;47967;51.756;10.174;2023-02-26T21:42:36;100756.97;;;-2.74;79.61
62011;BME280;47967;51.756;10.174;2023-02-26T21:46:40;100761.00;;;-2.52;80.41
62011;BME280;47967;51.756;10.174;2023-02-26T21:50:43;100758.28;;;-2.36;80.89
62011;BME280;47967;51.756;10.174;2023-02-26T21:54:47;100770.16;;;-2.44;80.49
62011;BME280;47967;51.756;10.174;2023-02-26T21:58:50;100770.66;;;-2.67;80.14
